Cox, Texas
Current Conditions -  °F | °C
As of 4:55 PM on Thursday 23 Oct 2014 (Local Time) from KOSA Reporting Station
Clear Clear  
Wind Chill: 73°   Ceiling: Unl
Heat Index: 73°   Visibility: 10mi
Dew Point: 51°   Wind: 0mph
Humidity: 46%   Direction: NA
Pressure: 30.11"   Gusts: NA
Location:  32.7353°N, 94.9492°W
Report Text: KOSA 232155Z AUTO 00000KT 10SM CLR 23/11 A3011 RMK AO1 T02280105
Loading
Personal Weather Stations






























Interactive Weather Map
Tropical Storm Tracking
New forecast layout! Learn more

10-Day Weather Forecast

Advertisements
Track Severe Weather on mobile